This is the latest recevied weather packets stored in our database for station/object SP2JGY-2. If no packets are shown the sender has not sent any weather packets the latest 10 day(s).
| Time | Temp. | Humidity | Pressure | Rain* | Wind** | Luminosity | Snow |
|---|---|---|---|---|---|---|---|
| 1777478946 | 20.56° C | 14% | 1029.6 hPa | - | - | - | - |
| 1777477146 | 19.44° C | 15% | 1029.6 hPa | - | - | - | - |
| 1777476246 | 22.78° C | 12% | 1029.2 hPa | - | - | - | - |
| 1777475346 | 23.33° C | 12% | 1029.3 hPa | - | - | - | - |
| 1777473545 | 18.33° C | 15% | 1029.5 hPa | - | - | - | - |
| 1777472645 | 13.89° C | 21% | 1029.5 hPa | - | - | - | - |
| 1777471745 | 13.33° C | 22% | 1029.6 hPa | - | - | - | - |
| 1777470845 | 13.89° C | 24% | 1029.6 hPa | - | - | - | - |
| 1777469945 | 13.89° C | 23% | 1029.7 hPa | - | - | - | - |
| 1777468144 | 14.44° C | 23% | 1029.6 hPa | - | - | - | - |
| 1777466344 | 13.89° C | 25% | 1029.5 hPa | - | - | - | - |
| 1777465444 | 12.78° C | 26% | 1029.7 hPa | - | - | - | - |
| 1777464544 | 12.78° C | 28% | 1029.8 hPa | - | - | - | - |
| 1777462743 | 11.67° C | 28% | 1029.9 hPa | - | - | - | - |
| 1777461843 | 11.67° C | 29% | 1030.2 hPa | - | - | - | - |
| 1777460943 | 11.67° C | 29% | 1030.1 hPa | - | - | - | - |
| 1777460043 | 11.11° C | 31% | 1030.2 hPa | - | - | - | - |
| 1777459143 | 10° C | 34% | 1030.3 hPa | - | - | - | - |
| 1777457342 | 9.44° C | 36% | 1030.4 hPa | - | - | - | - |
| 1777456442 | 10.56° C | 34% | 1030.3 hPa | - | - | - | - |
| 1777455542 | 10° C | 37% | 1030.4 hPa | - | - | - | - |
| 1777454642 | 10.56° C | 35% | 1030.4 hPa | - | - | - | - |
| 1777453742 | 11.11° C | 33% | 1030.4 hPa | - | - | - | - |
| 1777452841 | 10.56° C | 34% | 1030.3 hPa | - | - | - | - |
| 1777451941 | 10.56° C | 33% | 1030.4 hPa | - | - | - | - |
* Rain since midnight (hover to see other rain measurements)
** Current wind speed in m/s (hover to see current wind gust speed)